sensor_id;sensor_type;location;lat;lon;timestamp;temperature;humidity
52509;DHT22;38420;53.150;6.370;2023-11-18T00:01:49;3.90;99.90
52509;DHT22;38420;53.150;6.370;2023-11-18T00:04:15;2.50;99.90
52509;DHT22;38420;53.150;6.370;2023-11-18T00:06:44;3.50;99.90
52509;DHT22;38420;53.150;6.370;2023-11-18T00:09:12;4.30;99.90
52509;DHT22;38420;53.150;6.370;2023-11-18T00:11:39;2.50;99.90
52509;DHT22;38420;53.150;6.370;2023-11-18T00:14:05;3.30;99.90
52509;DHT22;38420;53.150;6.370;2023-11-18T00:16:30;3.90;99.90
52509;DHT22;38420;53.150;6.370;2023-11-18T00:18:57;2.70;99.90
52509;DHT22;38420;53.150;6.370;2023-11-18T00:21:24;2.60;99.90
52509;DHT22;38420;53.150;6.370;2023-11-18T00:23:50;2.50;99.90
52509;DHT22;38420;53.150;6.370;2023-11-18T00:26:16;3.40;99.90
52509;DHT22;38420;53.150;6.370;2023-11-18T00:28:41;2.40;99.90
52509;DHT22;38420;53.150;6.370;2023-11-18T00:31:07;2.60;99.90
52509;DHT22;38420;53.150;6.370;2023-11-18T00:33:33;2.40;99.90
52509;DHT22;38420;53.150;6.370;2023-11-18T00:35:58;3.70;99.90
52509;DHT22;38420;53.150;6.370;2023-11-18T00:38:26;3.30;99.90
52509;DHT22;38420;53.150;6.370;2023-11-18T00:40:51;3.20;99.90
52509;DHT22;38420;53.150;6.370;2023-11-18T00:43:17;2.60;99.90
52509;DHT22;38420;53.150;6.370;2023-11-18T00:45:43;2.50;99.90
52509;DHT22;38420;53.150;6.370;2023-11-18T00:48:09;3.70;99.90
52509;DHT22;38420;53.150;6.370;2023-11-18T00:50:35;2.20;99.90
52509;DHT22;38420;53.150;6.370;2023-11-18T00:53:01;3.60;99.90
52509;DHT22;38420;53.150;6.370;2023-11-18T00:55:27;2.20;99.90
52509;DHT22;38420;53.150;6.370;2023-11-18T00:57:52;3.20;99.90
52509;DHT22;38420;53.150;6.370;2023-11-18T01:00:18;3.50;99.90
52509;DHT22;38420;53.150;6.370;2023-11-18T01:02:47;2.40;99.90
52509;DHT22;38420;53.150;6.370;2023-11-18T01:05:15;2.90;99.90
52509;DHT22;38420;53.150;6.370;2023-11-18T01:07:41;2.30;99.90
52509;DHT22;38420;53.150;6.370;2023-11-18T01:10:07;3.00;99.90
52509;DHT22;38420;53.150;6.370;2023-11-18T01:12:34;3.60;99.90
52509;DHT22;38420;53.150;6.370;2023-11-18T01:15:00;2.20;99.90
52509;DHT22;38420;53.150;6.370;2023-11-18T01:17:25;3.10;99.90
52509;DHT22;38420;53.150;6.370;2023-11-18T01:19:51;2.50;99.90
52509;DHT22;38420;53.150;6.370;2023-11-18T01:22:17;3.60;99.90
52509;DHT22;38420;53.150;6.370;2023-11-18T01:24:44;3.30;99.90
52509;DHT22;38420;53.150;6.370;2023-11-18T01:27:09;3.40;99.90
52509;DHT22;38420;53.150;6.370;2023-11-18T01:29:36;2.50;99.90
52509;DHT22;38420;53.150;6.370;2023-11-18T01:32:02;3.20;99.90
52509;DHT22;38420;53.150;6.370;2023-11-18T01:34:34;3.60;99.90
52509;DHT22;38420;53.150;6.370;2023-11-18T01:37:00;2.10;99.90
52509;DHT22;38420;53.150;6.370;2023-11-18T01:39:26;3.00;99.90
52509;DHT22;38420;53.150;6.370;2023-11-18T01:41:52;2.80;99.90
52509;DHT22;38420;53.150;6.370;2023-11-18T01:44:18;2.60;99.90
52509;DHT22;38420;53.150;6.370;2023-11-18T01:46:45;3.60;99.90
52509;DHT22;38420;53.150;6.370;2023-11-18T01:49:14;3.70;99.90
52509;DHT22;38420;53.150;6.370;2023-11-18T01:51:44;2.70;99.90
52509;DHT22;38420;53.150;6.370;2023-11-18T01:54:12;3.60;99.90
52509;DHT22;38420;53.150;6.370;2023-11-18T01:56:42;3.40;99.90
52509;DHT22;38420;53.150;6.370;2023-11-18T01:59:09;2.20;99.90
52509;DHT22;38420;53.150;6.370;2023-11-18T02:01:35;2.40;99.90
52509;DHT22;38420;53.150;6.370;2023-11-18T02:04:02;2.40;99.90
52509;DHT22;38420;53.150;6.370;2023-11-18T02:06:31;2.50;99.90
52509;DHT22;38420;53.150;6.370;2023-11-18T02:08:56;3.20;99.90
52509;DHT22;38420;53.150;6.370;2023-11-18T02:11:45;2.60;99.90
52509;DHT22;38420;53.150;6.370;2023-11-18T02:14:14;3.90;99.90
52509;DHT22;38420;53.150;6.370;2023-11-18T02:16:43;3.00;99.90
52509;DHT22;38420;53.150;6.370;2023-11-18T02:19:20;3.80;99.90
52509;DHT22;38420;53.150;6.370;2023-11-18T02:21:50;2.80;99.90
52509;DHT22;38420;53.150;6.370;2023-11-18T02:24:45;2.40;99.90
52509;DHT22;38420;53.150;6.370;2023-11-18T02:27:11;2.70;99.90
52509;DHT22;38420;53.150;6.370;2023-11-18T02:29:42;3.30;99.90
52509;DHT22;38420;53.150;6.370;2023-11-18T02:32:25;3.60;99.90
52509;DHT22;38420;53.150;6.370;2023-11-18T02:35:03;3.00;99.90
52509;DHT22;38420;53.150;6.370;2023-11-18T02:37:30;3.10;99.90
52509;DHT22;38420;53.150;6.370;2023-11-18T02:40:03;3.40;99.90
52509;DHT22;38420;53.150;6.370;2023-11-18T02:42:36;3.50;99.90
52509;DHT22;38420;53.150;6.370;2023-11-18T02:45:05;2.50;99.90
52509;DHT22;38420;53.150;6.370;2023-11-18T02:47:32;2.80;99.90
52509;DHT22;38420;53.150;6.370;2023-11-18T02:49:58;4.20;99.90
52509;DHT22;38420;53.150;6.370;2023-11-18T02:52:31;2.60;99.90
52509;DHT22;38420;53.150;6.370;2023-11-18T02:54:56;3.80;99.90
52509;DHT22;38420;53.150;6.370;2023-11-18T02:57:22;4.00;99.90
52509;DHT22;38420;53.150;6.370;2023-11-18T02:59:47;3.90;99.90
52509;DHT22;38420;53.150;6.370;2023-11-18T03:02:13;4.00;99.90
52509;DHT22;38420;53.150;6.370;2023-11-18T03:04:40;4.10;99.90
52509;DHT22;38420;53.150;6.370;2023-11-18T03:07:09;2.60;99.90
52509;DHT22;38420;53.150;6.370;2023-11-18T03:09:35;2.90;99.90
52509;DHT22;38420;53.150;6.370;2023-11-18T03:12:03;2.50;99.90
52509;DHT22;38420;53.150;6.370;2023-11-18T03:14:29;2.90;99.90
52509;DHT22;38420;53.150;6.370;2023-11-18T03:16:54;2.50;99.90
52509;DHT22;38420;53.150;6.370;2023-11-18T03:19:21;2.30;99.90
52509;DHT22;38420;53.150;6.370;2023-11-18T03:21:56;3.80;99.90
52509;DHT22;38420;53.150;6.370;2023-11-18T03:24:21;3.20;99.90
52509;DHT22;38420;53.150;6.370;2023-11-18T03:26:47;4.00;99.90
52509;DHT22;38420;53.150;6.370;2023-11-18T03:29:13;3.00;99.90
52509;DHT22;38420;53.150;6.370;2023-11-18T03:31:39;2.30;99.90
52509;DHT22;38420;53.150;6.370;2023-11-18T03:34:04;3.50;99.90
52509;DHT22;38420;53.150;6.370;2023-11-18T03:36:30;3.60;99.90
52509;DHT22;38420;53.150;6.370;2023-11-18T03:38:55;2.40;99.90
52509;DHT22;38420;53.150;6.370;2023-11-18T03:41:21;3.90;99.90
52509;DHT22;38420;53.150;6.370;2023-11-18T03:43:49;3.00;99.90
52509;DHT22;38420;53.150;6.370;2023-11-18T03:46:14;3.00;99.90
52509;DHT22;38420;53.150;6.370;2023-11-18T03:48:41;3.30;99.90
52509;DHT22;38420;53.150;6.370;2023-11-18T03:51:06;2.60;99.90
52509;DHT22;38420;53.150;6.370;2023-11-18T03:53:32;2.30;99.90
52509;DHT22;38420;53.150;6.370;2023-11-18T03:55:59;4.00;99.90
52509;DHT22;38420;53.150;6.370;2023-11-18T03:58:24;4.00;99.90
52509;DHT22;38420;53.150;6.370;2023-11-18T04:00:50;3.80;99.90
52509;DHT22;38420;53.150;6.370;2023-11-18T04:03:16;2.50;99.90
52509;DHT22;38420;53.150;6.370;2023-11-18T04:05:41;3.50;99.90
52509;DHT22;38420;53.150;6.370;2023-11-18T04:08:07;2.80;99.90
52509;DHT22;38420;53.150;6.370;2023-11-18T04:10:32;2.90;99.90
52509;DHT22;38420;53.150;6.370;2023-11-18T04:12:58;4.10;99.90
52509;DHT22;38420;53.150;6.370;2023-11-18T04:15:23;2.30;99.90
52509;DHT22;38420;53.150;6.370;2023-11-18T04:17:49;2.30;99.90
52509;DHT22;38420;53.150;6.370;2023-11-18T04:20:15;3.80;99.90
52509;DHT22;38420;53.150;6.370;2023-11-18T04:22:41;2.40;99.90
52509;DHT22;38420;53.150;6.370;2023-11-18T04:25:08;2.40;99.90
52509;DHT22;38420;53.150;6.370;2023-11-18T04:27:35;2.90;99.90
52509;DHT22;38420;53.150;6.370;2023-11-18T04:30:01;2.30;99.90
52509;DHT22;38420;53.150;6.370;2023-11-18T04:32:27;2.40;99.90
52509;DHT22;38420;53.150;6.370;2023-11-18T04:34:52;2.60;99.90
52509;DHT22;38420;53.150;6.370;2023-11-18T04:37:18;2.40;99.90
52509;DHT22;38420;53.150;6.370;2023-11-18T04:39:44;2.50;99.90
52509;DHT22;38420;53.150;6.370;2023-11-18T04:42:09;2.80;99.90
52509;DHT22;38420;53.150;6.370;2023-11-18T04:44:35;2.50;99.90
52509;DHT22;38420;53.150;6.370;2023-11-18T04:47:01;3.40;99.90
52509;DHT22;38420;53.150;6.370;2023-11-18T04:49:27;4.40;99.90
52509;DHT22;38420;53.150;6.370;2023-11-18T04:51:53;4.80;99.90
52509;DHT22;38420;53.150;6.370;2023-11-18T04:54:18;4.40;99.90
52509;DHT22;38420;53.150;6.370;2023-11-18T04:56:44;3.00;99.90
52509;DHT22;38420;53.150;6.370;2023-11-18T04:59:10;4.50;99.90
52509;DHT22;38420;53.150;6.370;2023-11-18T05:01:36;3.60;99.90
52509;DHT22;38420;53.150;6.370;2023-11-18T05:04:03;2.60;99.90
52509;DHT22;38420;53.150;6.370;2023-11-18T05:06:29;4.60;99.90
52509;DHT22;38420;53.150;6.370;2023-11-18T05:08:54;4.50;99.90
52509;DHT22;38420;53.150;6.370;2023-11-18T05:11:20;3.70;99.90
52509;DHT22;38420;53.150;6.370;2023-11-18T05:13:46;4.20;99.90
52509;DHT22;38420;53.150;6.370;2023-11-18T05:16:11;2.70;99.90
52509;DHT22;38420;53.150;6.370;2023-11-18T05:18:37;4.50;99.90
52509;DHT22;38420;53.150;6.370;2023-11-18T05:21:04;3.80;99.90
52509;DHT22;38420;53.150;6.370;2023-11-18T05:23:31;2.90;99.90
52509;DHT22;38420;53.150;6.370;2023-11-18T05:25:57;2.90;99.90
52509;DHT22;38420;53.150;6.370;2023-11-18T05:28:26;3.50;99.90
52509;DHT22;38420;53.150;6.370;2023-11-18T05:30:52;4.70;99.90
52509;DHT22;38420;53.150;6.370;2023-11-18T05:33:18;4.90;99.90
52509;DHT22;38420;53.150;6.370;2023-11-18T05:35:45;4.50;99.90
52509;DHT22;38420;53.150;6.370;2023-11-18T05:38:17;4.90;99.90
52509;DHT22;38420;53.150;6.370;2023-11-18T05:40:46;3.00;99.90
52509;DHT22;38420;53.150;6.370;2023-11-18T05:43:28;4.60;99.90
52509;DHT22;38420;53.150;6.370;2023-11-18T05:46:05;5.00;99.90
52509;DHT22;38420;53.150;6.370;2023-11-18T05:48:44;3.10;99.90
52509;DHT22;38420;53.150;6.370;2023-11-18T05:51:10;5.00;99.90
52509;DHT22;38420;53.150;6.370;2023-11-18T05:53:42;3.10;99.90
52509;DHT22;38420;53.150;6.370;2023-11-18T05:56:14;3.80;99.90
52509;DHT22;38420;53.150;6.370;2023-11-18T05:58:40;5.00;99.90
52509;DHT22;38420;53.150;6.370;2023-11-18T06:01:06;3.00;99.90
52509;DHT22;38420;53.150;6.370;2023-11-18T06:03:36;3.00;99.90
52509;DHT22;38420;53.150;6.370;2023-11-18T06:06:09;3.90;99.90
52509;DHT22;38420;53.150;6.370;2023-11-18T06:08:39;5.10;99.90
52509;DHT22;38420;53.150;6.370;2023-11-18T06:11:12;3.10;99.90
52509;DHT22;38420;53.150;6.370;2023-11-18T06:13:48;3.10;99.90
52509;DHT22;38420;53.150;6.370;2023-11-18T06:16:19;4.80;99.90
52509;DHT22;38420;53.150;6.370;2023-11-18T06:18:55;5.10;99.90
52509;DHT22;38420;53.150;6.370;2023-11-18T06:21:22;5.30;99.90
52509;DHT22;38420;53.150;6.370;2023-11-18T06:23:54;3.40;99.90
52509;DHT22;38420;53.150;6.370;2023-11-18T06:26:23;3.10;99.90
52509;DHT22;38420;53.150;6.370;2023-11-18T06:28:52;3.20;99.90
52509;DHT22;38420;53.150;6.370;2023-11-18T06:31:21;3.70;99.90
52509;DHT22;38420;53.150;6.370;2023-11-18T06:33:49;3.20;99.90
52509;DHT22;38420;53.150;6.370;2023-11-18T06:38:42;5.30;99.90
52509;DHT22;38420;53.150;6.370;2023-11-18T06:41:09;4.60;99.90
52509;DHT22;38420;53.150;6.370;2023-11-18T06:43:38;3.70;99.90
52509;DHT22;38420;53.150;6.370;2023-11-18T06:46:18;3.90;99.90
52509;DHT22;38420;53.150;6.370;2023-11-18T06:48:47;4.90;99.90
52509;DHT22;38420;53.150;6.370;2023-11-18T06:51:13;3.30;99.90
52509;DHT22;38420;53.150;6.370;2023-11-18T06:53:40;3.50;99.90
52509;DHT22;38420;53.150;6.370;2023-11-18T06:56:06;5.20;99.90
52509;DHT22;38420;53.150;6.370;2023-11-18T06:58:32;4.50;99.90
52509;DHT22;38420;53.150;6.370;2023-11-18T07:00:59;3.30;99.90
52509;DHT22;38420;53.150;6.370;2023-11-18T07:03:24;5.60;99.90
52509;DHT22;38420;53.150;6.370;2023-11-18T07:05:51;5.20;99.90
52509;DHT22;38420;53.150;6.370;2023-11-18T07:08:16;5.60;99.90
52509;DHT22;38420;53.150;6.370;2023-11-18T07:10:42;3.80;99.90
52509;DHT22;38420;53.150;6.370;2023-11-18T07:13:07;4.40;99.90
52509;DHT22;38420;53.150;6.370;2023-11-18T07:15:34;4.00;99.90
52509;DHT22;38420;53.150;6.370;2023-11-18T07:18:01;3.50;99.90
52509;DHT22;38420;53.150;6.370;2023-11-18T07:20:27;5.70;99.90
52509;DHT22;38420;53.150;6.370;2023-11-18T07:22:53;5.80;99.90
52509;DHT22;38420;53.150;6.370;2023-11-18T07:25:19;5.30;99.90
52509;DHT22;38420;53.150;6.370;2023-11-18T07:27:45;5.60;99.90
52509;DHT22;38420;53.150;6.370;2023-11-18T07:30:11;5.90;99.90
52509;DHT22;38420;53.150;6.370;2023-11-18T07:32:37;5.80;99.90
52509;DHT22;38420;53.150;6.370;2023-11-18T07:35:03;5.90;99.90
52509;DHT22;38420;53.150;6.370;2023-11-18T07:37:28;5.80;99.90
52509;DHT22;38420;53.150;6.370;2023-11-18T07:39:58;4.20;99.90
52509;DHT22;38420;53.150;6.370;2023-11-18T07:42:26;4.10;99.90
52509;DHT22;38420;53.150;6.370;2023-11-18T07:44:52;6.00;99.90
52509;DHT22;38420;53.150;6.370;2023-11-18T07:47:17;6.00;99.90
52509;DHT22;38420;53.150;6.370;2023-11-18T07:49:45;5.10;99.90
52509;DHT22;38420;53.150;6.370;2023-11-18T07:52:11;6.10;99.90
52509;DHT22;38420;53.150;6.370;2023-11-18T07:54:37;4.60;99.90
52509;DHT22;38420;53.150;6.370;2023-11-18T07:57:03;5.90;99.90
52509;DHT22;38420;53.150;6.370;2023-11-18T07:59:33;3.80;99.90
52509;DHT22;38420;53.150;6.370;2023-11-18T08:01:58;5.50;99.90
52509;DHT22;38420;53.150;6.370;2023-11-18T08:04:26;5.20;99.90
52509;DHT22;38420;53.150;6.370;2023-11-18T08:06:52;5.70;99.90
52509;DHT22;38420;53.150;6.370;2023-11-18T08:09:19;4.90;99.90
52509;DHT22;38420;53.150;6.370;2023-11-18T08:11:48;4.10;99.90
52509;DHT22;38420;53.150;6.370;2023-11-18T08:14:14;4.80;99.90
52509;DHT22;38420;53.150;6.370;2023-11-18T08:16:40;6.20;99.90
52509;DHT22;38420;53.150;6.370;2023-11-18T08:19:06;6.10;99.90
52509;DHT22;38420;53.150;6.370;2023-11-18T08:21:34;3.80;99.90
52509;DHT22;38420;53.150;6.370;2023-11-18T08:24:00;3.70;99.90
52509;DHT22;38420;53.150;6.370;2023-11-18T08:26:27;6.00;99.90
52509;DHT22;38420;53.150;6.370;2023-11-18T08:28:52;4.80;99.90
52509;DHT22;38420;53.150;6.370;2023-11-18T08:31:18;4.20;99.90
52509;DHT22;38420;53.150;6.370;2023-11-18T08:33:43;6.00;99.90
52509;DHT22;38420;53.150;6.370;2023-11-18T08:36:10;5.00;99.90
52509;DHT22;38420;53.150;6.370;2023-11-18T08:38:38;5.90;99.90
52509;DHT22;38420;53.150;6.370;2023-11-18T08:41:04;4.10;99.90
52509;DHT22;38420;53.150;6.370;2023-11-18T08:43:31;5.30;99.90
52509;DHT22;38420;53.150;6.370;2023-11-18T08:45:56;6.40;99.90
52509;DHT22;38420;53.150;6.370;2023-11-18T08:48:22;4.50;99.90
52509;DHT22;38420;53.150;6.370;2023-11-18T08:50:48;5.80;99.90
52509;DHT22;38420;53.150;6.370;2023-11-18T08:53:14;6.30;99.90
52509;DHT22;38420;53.150;6.370;2023-11-18T08:55:44;4.10;99.90
52509;DHT22;38420;53.150;6.370;2023-11-18T08:58:22;6.50;99.90
52509;DHT22;38420;53.150;6.370;2023-11-18T09:00:55;4.20;99.90
52509;DHT22;38420;53.150;6.370;2023-11-18T09:03:26;5.00;99.90
52509;DHT22;38420;53.150;6.370;2023-11-18T09:06:04;6.80;99.90
52509;DHT22;38420;53.150;6.370;2023-11-18T09:08:38;5.40;99.90
52509;DHT22;38420;53.150;6.370;2023-11-18T09:11:05;5.80;99.90
52509;DHT22;38420;53.150;6.370;2023-11-18T09:13:32;6.70;99.90
52509;DHT22;38420;53.150;6.370;2023-11-18T09:16:05;6.60;99.90
52509;DHT22;38420;53.150;6.370;2023-11-18T09:18:35;4.40;99.90
52509;DHT22;38420;53.150;6.370;2023-11-18T09:21:04;5.00;99.90
52509;DHT22;38420;53.150;6.370;2023-11-18T09:23:35;6.00;99.90
52509;DHT22;38420;53.150;6.370;2023-11-18T09:26:01;5.90;99.90
52509;DHT22;38420;53.150;6.370;2023-11-18T09:28:28;4.60;99.90
52509;DHT22;38420;53.150;6.370;2023-11-18T09:30:55;4.40;99.90
52509;DHT22;38420;53.150;6.370;2023-11-18T09:33:25;4.40;99.90
52509;DHT22;38420;53.150;6.370;2023-11-18T09:35:56;4.40;99.90
52509;DHT22;38420;53.150;6.370;2023-11-18T09:38:31;4.50;99.90
52509;DHT22;38420;53.150;6.370;2023-11-18T09:41:00;7.00;99.90
52509;DHT22;38420;53.150;6.370;2023-11-18T09:43:29;7.10;99.90
52509;DHT22;38420;53.150;6.370;2023-11-18T09:46:04;5.00;99.90
52509;DHT22;38420;53.150;6.370;2023-11-18T09:48:42;7.00;99.90
52509;DHT22;38420;53.150;6.370;2023-11-18T09:51:18;6.70;99.90
52509;DHT22;38420;53.150;6.370;2023-11-18T09:53:55;5.40;99.90
52509;DHT22;38420;53.150;6.370;2023-11-18T09:59:31;6.90;99.90
52509;DHT22;38420;53.150;6.370;2023-11-18T10:02:00;7.00;99.90
52509;DHT22;38420;53.150;6.370;2023-11-18T10:04:27;5.20;99.90
52509;DHT22;38420;53.150;6.370;2023-11-18T10:06:54;6.40;99.90
52509;DHT22;38420;53.150;6.370;2023-11-18T10:09:25;7.10;99.90
52509;DHT22;38420;53.150;6.370;2023-11-18T10:12:02;7.00;99.90
52509;DHT22;38420;53.150;6.370;2023-11-18T10:14:35;7.10;99.90
52509;DHT22;38420;53.150;6.370;2023-11-18T10:17:04;6.70;99.90
52509;DHT22;38420;53.150;6.370;2023-11-18T10:19:58;4.50;99.90
52509;DHT22;38420;53.150;6.370;2023-11-18T10:22:38;6.20;99.90
52509;DHT22;38420;53.150;6.370;2023-11-18T10:25:04;6.30;99.90
52509;DHT22;38420;53.150;6.370;2023-11-18T10:27:31;7.00;99.90
52509;DHT22;38420;53.150;6.370;2023-11-18T10:30:06;6.70;99.90
52509;DHT22;38420;53.150;6.370;2023-11-18T10:32:56;6.50;99.90
52509;DHT22;38420;53.150;6.370;2023-11-18T10:35:31;6.70;99.90
52509;DHT22;38420;53.150;6.370;2023-11-18T10:37:57;4.50;99.90
52509;DHT22;38420;53.150;6.370;2023-11-18T10:40:25;4.40;99.90
52509;DHT22;38420;53.150;6.370;2023-11-18T10:42:52;4.40;99.90
52509;DHT22;38420;53.150;6.370;2023-11-18T10:45:27;4.80;99.90
52509;DHT22;38420;53.150;6.370;2023-11-18T10:47:54;6.20;99.90
52509;DHT22;38420;53.150;6.370;2023-11-18T10:50:21;4.40;99.90
52509;DHT22;38420;53.150;6.370;2023-11-18T10:52:48;5.90;99.90
52509;DHT22;38420;53.150;6.370;2023-11-18T10:55:14;4.80;99.90
52509;DHT22;38420;53.150;6.370;2023-11-18T10:57:45;6.90;99.90
52509;DHT22;38420;53.150;6.370;2023-11-18T11:00:11;6.80;99.90
52509;DHT22;38420;53.150;6.370;2023-11-18T11:02:41;5.20;99.90
52509;DHT22;38420;53.150;6.370;2023-11-18T11:05:09;5.40;99.90
52509;DHT22;38420;53.150;6.370;2023-11-18T11:07:42;4.50;99.90
52509;DHT22;38420;53.150;6.370;2023-11-18T11:10:09;4.50;99.90
52509;DHT22;38420;53.150;6.370;2023-11-18T11:12:45;6.80;99.90
52509;DHT22;38420;53.150;6.370;2023-11-18T11:15:29;6.70;99.90
52509;DHT22;38420;53.150;6.370;2023-11-18T11:18:05;6.70;99.90
52509;DHT22;38420;53.150;6.370;2023-11-18T11:20:42;4.30;99.90
52509;DHT22;38420;53.150;6.370;2023-11-18T11:23:21;5.90;99.90
52509;DHT22;38420;53.150;6.370;2023-11-18T11:28:38;6.80;99.90
52509;DHT22;38420;53.150;6.370;2023-11-18T11:31:32;6.70;99.90
52509;DHT22;38420;53.150;6.370;2023-11-18T11:34:06;5.60;99.90
52509;DHT22;38420;53.150;6.370;2023-11-18T11:36:43;4.50;99.90
52509;DHT22;38420;53.150;6.370;2023-11-18T11:39:13;6.20;99.90
52509;DHT22;38420;53.150;6.370;2023-11-18T11:41:46;6.70;99.90
52509;DHT22;38420;53.150;6.370;2023-11-18T11:44:13;4.60;99.90
52509;DHT22;38420;53.150;6.370;2023-11-18T11:46:40;4.70;99.90
52509;DHT22;38420;53.150;6.370;2023-11-18T11:49:09;5.00;99.90
52509;DHT22;38420;53.150;6.370;2023-11-18T11:51:52;5.60;99.90
52509;DHT22;38420;53.150;6.370;2023-11-18T11:54:29;4.70;99.90
52509;DHT22;38420;53.150;6.370;2023-11-18T11:56:57;6.20;99.90
52509;DHT22;38420;53.150;6.370;2023-11-18T12:02:15;4.90;99.90
52509;DHT22;38420;53.150;6.370;2023-11-18T12:04:45;5.30;99.90
52509;DHT22;38420;53.150;6.370;2023-11-18T12:07:11;6.90;99.90
52509;DHT22;38420;53.150;6.370;2023-11-18T12:09:41;5.70;99.90
52509;DHT22;38420;53.150;6.370;2023-11-18T12:12:21;6.50;99.90
52509;DHT22;38420;53.150;6.370;2023-11-18T12:14:52;5.00;99.90
52509;DHT22;38420;53.150;6.370;2023-11-18T12:17:18;4.70;99.90
52509;DHT22;38420;53.150;6.370;2023-11-18T12:19:50;6.80;99.90
52509;DHT22;38420;53.150;6.370;2023-11-18T12:22:22;4.80;99.90
52509;DHT22;38420;53.150;6.370;2023-11-18T12:33:03;6.20;99.90
52509;DHT22;38420;53.150;6.370;2023-11-18T12:41:34;6.10;99.90
52509;DHT22;38420;53.150;6.370;2023-11-18T12:47:19;6.40;99.90
52509;DHT22;38420;53.150;6.370;2023-11-18T12:49:48;6.20;99.90
52509;DHT22;38420;53.150;6.370;2023-11-18T12:52:20;5.20;99.90
52509;DHT22;38420;53.150;6.370;2023-11-18T12:54:47;6.80;99.90
52509;DHT22;38420;53.150;6.370;2023-11-18T12:57:18;6.80;99.90
52509;DHT22;38420;53.150;6.370;2023-11-18T12:59:45;6.10;99.90
52509;DHT22;38420;53.150;6.370;2023-11-18T13:02:11;5.80;99.90
52509;DHT22;38420;53.150;6.370;2023-11-18T13:04:46;4.90;99.90
52509;DHT22;38420;53.150;6.370;2023-11-18T13:07:18;4.90;99.90
52509;DHT22;38420;53.150;6.370;2023-11-18T13:09:44;5.30;99.90
52509;DHT22;38420;53.150;6.370;2023-11-18T13:12:12;5.30;99.90
52509;DHT22;38420;53.150;6.370;2023-11-18T13:14:41;5.00;99.90
52509;DHT22;38420;53.150;6.370;2023-11-18T13:17:14;6.90;99.90
52509;DHT22;38420;53.150;6.370;2023-11-18T13:19:44;6.90;99.90
52509;DHT22;38420;53.150;6.370;2023-11-18T13:22:11;4.90;99.90
52509;DHT22;38420;53.150;6.370;2023-11-18T13:24:42;4.80;99.90
52509;DHT22;38420;53.150;6.370;2023-11-18T13:27:13;4.80;99.90
52509;DHT22;38420;53.150;6.370;2023-11-18T13:29:43;6.00;99.90
52509;DHT22;38420;53.150;6.370;2023-11-18T13:32:10;6.90;99.90
52509;DHT22;38420;53.150;6.370;2023-11-18T13:34:37;7.00;99.90
52509;DHT22;38420;53.150;6.370;2023-11-18T13:37:04;4.90;99.90
52509;DHT22;38420;53.150;6.370;2023-11-18T13:39:34;5.20;99.90
52509;DHT22;38420;53.150;6.370;2023-11-18T13:42:19;7.10;99.90
52509;DHT22;38420;53.150;6.370;2023-11-18T13:44:45;4.90;99.90
52509;DHT22;38420;53.150;6.370;2023-11-18T13:47:11;6.20;99.90
52509;DHT22;38420;53.150;6.370;2023-11-18T13:49:38;4.90;99.90
52509;DHT22;38420;53.150;6.370;2023-11-18T13:52:07;7.10;99.90
52509;DHT22;38420;53.150;6.370;2023-11-18T13:54:39;5.40;99.90
52509;DHT22;38420;53.150;6.370;2023-11-18T13:57:08;4.90;99.90
52509;DHT22;38420;53.150;6.370;2023-11-18T13:59:35;5.30;99.90
52509;DHT22;38420;53.150;6.370;2023-11-18T14:02:00;7.20;99.90
52509;DHT22;38420;53.150;6.370;2023-11-18T14:04:28;6.40;99.90
52509;DHT22;38420;53.150;6.370;2023-11-18T14:07:01;7.30;99.90
52509;DHT22;38420;53.150;6.370;2023-11-18T14:09:29;5.00;99.90
52509;DHT22;38420;53.150;6.370;2023-11-18T14:11:55;6.70;99.90
52509;DHT22;38420;53.150;6.370;2023-11-18T14:14:22;5.20;99.90
52509;DHT22;38420;53.150;6.370;2023-11-18T14:16:48;4.90;99.90
52509;DHT22;38420;53.150;6.370;2023-11-18T14:19:15;6.50;99.90
52509;DHT22;38420;53.150;6.370;2023-11-18T14:21:41;7.40;99.90
52509;DHT22;38420;53.150;6.370;2023-11-18T14:24:10;7.00;99.90
52509;DHT22;38420;53.150;6.370;2023-11-18T14:26:37;7.40;99.90
52509;DHT22;38420;53.150;6.370;2023-11-18T14:29:05;6.10;99.90
52509;DHT22;38420;53.150;6.370;2023-11-18T14:31:31;6.50;99.90
52509;DHT22;38420;53.150;6.370;2023-11-18T14:33:57;5.50;99.90
52509;DHT22;38420;53.150;6.370;2023-11-18T14:36:25;5.30;99.90
52509;DHT22;38420;53.150;6.370;2023-11-18T14:38:51;7.10;99.90
52509;DHT22;38420;53.150;6.370;2023-11-18T14:41:16;7.40;99.90
52509;DHT22;38420;53.150;6.370;2023-11-18T14:43:42;5.20;99.90
52509;DHT22;38420;53.150;6.370;2023-11-18T14:46:08;5.20;99.90
52509;DHT22;38420;53.150;6.370;2023-11-18T14:48:34;7.30;99.90
52509;DHT22;38420;53.150;6.370;2023-11-18T14:50:59;5.30;99.90
52509;DHT22;38420;53.150;6.370;2023-11-18T14:53:26;6.10;99.90
52509;DHT22;38420;53.150;6.370;2023-11-18T14:55:51;5.90;99.90
52509;DHT22;38420;53.150;6.370;2023-11-18T14:58:17;7.30;99.90
52509;DHT22;38420;53.150;6.370;2023-11-18T15:00:42;7.40;99.90
52509;DHT22;38420;53.150;6.370;2023-11-18T15:03:08;5.90;99.90
52509;DHT22;38420;53.150;6.370;2023-11-18T15:05:34;5.60;99.90
52509;DHT22;38420;53.150;6.370;2023-11-18T15:08:00;6.50;99.90
52509;DHT22;38420;53.150;6.370;2023-11-18T15:10:27;5.80;99.90
52509;DHT22;38420;53.150;6.370;2023-11-18T15:12:55;5.50;99.90
52509;DHT22;38420;53.150;6.370;2023-11-18T15:15:27;6.40;99.90
52509;DHT22;38420;53.150;6.370;2023-11-18T15:17:58;6.90;99.90
52509;DHT22;38420;53.150;6.370;2023-11-18T15:20:24;5.70;99.90
52509;DHT22;38420;53.150;6.370;2023-11-18T15:22:51;7.60;99.90
52509;DHT22;38420;53.150;6.370;2023-11-18T15:25:16;9.00;99.90
52509;DHT22;38420;53.150;6.370;2023-11-18T15:27:43;5.30;99.90
52509;DHT22;38420;53.150;6.370;2023-11-18T15:30:15;8.40;99.90
52509;DHT22;38420;53.150;6.370;2023-11-18T15:32:43;5.40;99.90
52509;DHT22;38420;53.150;6.370;2023-11-18T15:35:10;9.00;99.90
52509;DHT22;38420;53.150;6.370;2023-11-18T15:37:41;7.40;99.90
52509;DHT22;38420;53.150;6.370;2023-11-18T15:40:10;7.00;99.90
52509;DHT22;38420;53.150;6.370;2023-11-18T15:42:46;7.60;99.90
52509;DHT22;38420;53.150;6.370;2023-11-18T15:45:17;9.10;99.90
52509;DHT22;38420;53.150;6.370;2023-11-18T15:47:43;8.60;99.90
52509;DHT22;38420;53.150;6.370;2023-11-18T15:50:10;5.90;99.90
52509;DHT22;38420;53.150;6.370;2023-11-18T15:52:45;6.70;99.90
52509;DHT22;38420;53.150;6.370;2023-11-18T15:55:11;7.80;99.90
52509;DHT22;38420;53.150;6.370;2023-11-18T15:57:47;5.50;99.90
52509;DHT22;38420;53.150;6.370;2023-11-18T16:00:13;6.90;99.90
52509;DHT22;38420;53.150;6.370;2023-11-18T16:02:43;7.40;99.90
52509;DHT22;38420;53.150;6.370;2023-11-18T16:05:13;7.20;99.90
52509;DHT22;38420;53.150;6.370;2023-11-18T16:07:44;7.90;99.90
52509;DHT22;38420;53.150;6.370;2023-11-18T16:10:14;7.90;99.90
52509;DHT22;38420;53.150;6.370;2023-11-18T16:12:54;6.80;99.90
52509;DHT22;38420;53.150;6.370;2023-11-18T16:15:27;8.70;99.90
52509;DHT22;38420;53.150;6.370;2023-11-18T16:17:54;8.00;99.90
52509;DHT22;38420;53.150;6.370;2023-11-18T16:20:21;5.90;99.90
52509;DHT22;38420;53.150;6.370;2023-11-18T16:22:48;6.90;99.90